Time;durP1;ratioP1;P1;durP2;ratioP2;P2;SDS_P1;SDS_P2;PMS_P1;PMS_P2;Temp;Humidity;BMP_temperature;BMP_pressure;BME280_temperature;BME280_humidity;BME280_pressure;Samples;Min_cycle;Max_cycle;Signal;HPM_P1;HPM_P2
2022/01/09 00:02:09;;;;;;;88.07;40.13;;;;;;;-2.32;72.84;97985.62;2172138;81;21571;-81
2022/01/09 00:05:09;;;;;;;89.20;40.17;;;;;;;-2.32;72.96;97980.92;2172112;81;21028;-80
2022/01/09 00:08:09;;;;;;;98.03;41.97;;;;;;;-2.35;73.19;97969.27;2172843;81;20996;-83
2022/01/09 00:11:10;;;;;;;95.80;41.80;;;;;;;-2.37;73.34;97965.77;2173148;81;20988;-82
2022/01/09 00:14:10;;;;;;;83.10;39.23;;;;;;;-2.43;73.13;97959.08;2173152;81;20957;-81
2022/01/09 00:17:11;;;;;;;84.87;40.50;;;;;;;-2.46;73.33;97964.92;2172907;81;21011;-81
2022/01/09 00:20:11;;;;;;;87.13;39.87;;;;;;;-2.48;73.34;97957.98;2173064;81;21000;-81
2022/01/09 00:23:12;;;;;;;86.17;40.53;;;;;;;-2.50;73.33;97957.03;2173070;81;20961;-83
2022/01/09 00:26:13;;;;;;;87.97;39.13;;;;;;;-2.51;73.43;97954.88;2173318;81;21321;-82
2022/01/09 00:29:14;;;;;;;89.50;39.87;;;;;;;-2.53;73.35;97951.78;2173058;81;20937;-81
2022/01/09 00:32:14;;;;;;;88.53;42.60;;;;;;;-2.57;73.42;97945.64;2172962;81;20957;-81
2022/01/09 00:35:15;;;;;;;91.50;39.23;;;;;;;-2.62;73.68;97936.45;2173076;81;21384;-81
2022/01/09 00:38:15;;;;;;;87.37;39.83;;;;;;;-2.64;73.60;97937.17;2187787;81;21485;-82
2022/01/09 00:41:16;;;;;;;86.53;39.30;;;;;;;-2.70;73.57;97931.77;2189030;81;20960;-82
2022/01/09 00:44:18;;;;;;;83.67;38.50;;;;;;;-2.75;73.72;97932.82;2189266;81;21033;-83
2022/01/09 00:47:18;;;;;;;85.30;40.93;;;;;;;-2.80;73.89;97933.00;2189632;81;21359;-82
2022/01/09 00:50:19;;;;;;;80.60;37.93;;;;;;;-2.86;73.85;97922.89;2189300;81;20956;-81
2022/01/09 00:53:19;;;;;;;87.50;40.13;;;;;;;-2.89;73.84;97927.44;2188932;81;20983;-82
2022/01/09 00:56:20;;;;;;;97.70;42.00;;;;;;;-2.92;73.96;97928.56;2189464;81;20996;-82
2022/01/09 00:59:20;;;;;;;95.50;41.63;;;;;;;-2.96;74.03;97922.44;2189434;81;20956;-79
2022/01/09 01:02:21;;;;;;;83.60;40.00;;;;;;;-2.94;74.19;97922.51;2189547;81;20944;-80
2022/01/09 01:05:21;;;;;;;90.70;41.60;;;;;;;-2.95;74.33;97916.92;2189434;81;20960;-79
2022/01/09 01:08:22;;;;;;;89.90;41.30;;;;;;;-2.97;74.23;97919.80;2189354;81;21000;-82
2022/01/09 01:11:22;;;;;;;93.67;39.50;;;;;;;-2.98;74.38;97912.95;2189294;81;20987;-82
2022/01/09 01:14:24;;;;;;;94.73;44.23;;;;;;;-2.99;74.24;97916.30;2189410;81;20968;-82
2022/01/09 01:17:25;;;;;;;96.17;41.43;;;;;;;-3.01;74.36;97908.56;2189028;81;21382;-82
2022/01/09 01:20:27;;;;;;;90.23;40.50;;;;;;;-3.00;74.31;97899.23;2189104;81;20952;-80
2022/01/09 01:23:27;;;;;;;83.17;40.10;;;;;;;-2.99;74.31;97891.64;2189203;81;21020;-80
2022/01/09 01:26:28;;;;;;;102.63;41.73;;;;;;;-3.00;74.10;97891.16;2189208;81;20972;-80
2022/01/09 01:29:28;;;;;;;84.77;39.30;;;;;;;-2.99;74.20;97894.20;2189481;81;21002;-81
2022/01/09 01:32:29;;;;;;;91.87;40.63;;;;;;;-2.99;74.21;97891.64;2189376;81;20944;-82
2022/01/09 01:35:29;;;;;;;96.33;42.13;;;;;;;-2.99;74.03;97896.75;2189464;81;20977;-82
2022/01/09 01:38:30;;;;;;;93.13;39.77;;;;;;;-2.98;73.93;97900.18;2188662;81;21008;-83
2022/01/09 01:41:30;;;;;;;81.27;38.57;;;;;;;-3.00;73.87;97892.84;2189096;81;21004;-81
2022/01/09 01:44:31;;;;;;;89.47;39.00;;;;;;;-3.03;73.45;97894.84;2188992;81;20989;-81
2022/01/09 01:47:31;;;;;;;95.63;42.83;;;;;;;-3.12;73.14;97883.31;2189603;81;20952;-81
2022/01/09 01:50:36;;;;;;;96.23;41.80;;;;;;;-3.28;73.64;97874.89;2188625;81;20960;-81
2022/01/09 01:53:34;;;;;;;99.27;42.30;;;;;;;-3.36;73.66;97872.36;2189371;81;21455;-79
2022/01/09 01:56:35;;;;;;;88.43;38.90;;;;;;;-3.43;73.80;97866.47;2189435;81;20996;-81
2022/01/09 01:59:35;;;;;;;104.90;42.63;;;;;;;-3.47;73.72;97859.83;2189489;81;20964;-81
2022/01/09 02:02:35;;;;;;;91.93;41.17;;;;;;;-3.53;73.62;97856.57;2189533;81;20960;-82
2022/01/09 02:05:36;;;;;;;85.53;39.67;;;;;;;-3.54;74.01;97855.70;2189635;81;21295;-82
2022/01/09 02:08:36;;;;;;;90.67;41.00;;;;;;;-3.59;73.84;97853.31;2189670;81;21051;-81
2022/01/09 02:11:37;;;;;;;86.53;39.43;;;;;;;-3.65;74.19;97842.80;2189502;81;21327;-81
2022/01/09 02:14:38;;;;;;;90.67;39.90;;;;;;;-3.71;74.10;97846.31;2189609;81;20940;-82
2022/01/09 02:17:38;;;;;;;87.00;39.87;;;;;;;;;;2189702;81;20995;-81
2022/01/09 02:20:39;;;;;;;80.80;36.90;;;;;;;-3.77;74.03;97833.25;2189508;81;20932;-81
2022/01/09 02:23:41;;;;;;;90.47;38.67;;;;;;;-3.80;74.46;97836.92;2189476;81;20940;-81
2022/01/09 02:26:41;;;;;;;82.07;38.73;;;;;;;-3.81;74.36;97833.02;2189617;81;20988;-81
2022/01/09 02:29:42;;;;;;;85.90;39.20;;;;;;;-3.80;74.52;97832.22;2189597;81;20948;-80
2022/01/09 02:32:42;;;;;;;89.77;39.23;;;;;;;-3.86;74.66;97823.45;2189475;81;20956;-81
2022/01/09 02:35:43;;;;;;;77.40;37.00;;;;;;;-3.85;75.22;97816.69;2189438;81;20987;-83
2022/01/09 02:38:43;;;;;;;96.73;40.73;;;;;;;-3.84;74.50;97815.89;2188972;81;21406;-81
2022/01/09 02:41:44;;;;;;;88.03;38.87;;;;;;;-3.87;74.69;97814.05;2189461;81;21363;-81
2022/01/09 02:44:44;;;;;;;83.23;39.40;;;;;;;-3.90;74.77;97808.80;2189617;81;21385;-81
2022/01/09 02:47:45;;;;;;;91.53;40.07;;;;;;;-3.93;74.84;97809.92;2189021;81;21008;-81
2022/01/09 02:50:59;;;;;;;88.80;40.37;;;;;;;-3.90;74.87;97810.08;2189477;81;20987;-81
2022/01/09 02:53:49;;;;;;;91.03;40.07;;;;;;;-3.86;74.92;97806.88;2187466;81;20968;-81
2022/01/09 02:56:50;;;;;;;86.60;38.23;;;;;;;-3.82;74.76;97807.04;2189371;81;21369;-81
2022/01/09 02:59:50;;;;;;;89.90;40.77;;;;;;;-3.82;74.83;97801.94;2189306;81;20952;-81
2022/01/09 03:02:51;;;;;;;92.47;42.67;;;;;;;-3.86;74.56;97791.59;2189029;81;20936;-81
2022/01/09 03:05:51;;;;;;;88.07;37.50;;;;;;;-3.87;74.54;97785.14;2188599;81;20972;-81
2022/01/09 03:08:51;;;;;;;90.60;40.53;;;;;;;-3.90;74.47;97785.86;2189064;81;21340;-82
2022/01/09 03:11:52;;;;;;;89.23;41.33;;;;;;;-3.92;74.75;97781.48;2189525;81;21304;-81
2022/01/09 03:14:52;;;;;;;95.93;41.63;;;;;;;-3.86;75.13;97782.66;2189475;81;20952;-81
2022/01/09 03:17:53;;;;;;;101.20;44.37;;;;;;;-3.79;75.10;97781.70;2189439;81;20909;-81
2022/01/09 03:20:53;;;;;;;112.00;47.30;;;;;;;-3.72;75.15;97783.75;2189303;81;20948;-81
2022/01/09 03:23:54;;;;;;;91.47;41.40;;;;;;;-3.65;75.09;97766.28;2188323;81;20956;-82
2022/01/09 03:26:54;;;;;;;94.63;42.57;;;;;;;-3.61;75.14;97767.31;2189062;81;20980;-81
2022/01/09 03:29:55;;;;;;;97.97;42.30;;;;;;;-3.53;75.30;97768.56;2189208;81;20967;-81
2022/01/09 03:32:55;;;;;;;96.90;44.03;;;;;;;-3.43;75.40;97761.86;2189377;81;21335;-82
2022/01/09 03:35:56;;;;;;;99.30;42.17;;;;;;;-3.31;75.32;97760.30;2189369;81;21355;-81
2022/01/09 03:38:56;;;;;;;103.33;43.97;;;;;;;-3.20;75.20;97764.24;2188741;81;21012;-81
2022/01/09 03:41:59;;;;;;;88.60;40.80;;;;;;;-3.11;75.09;97765.95;2171726;81;20963;-82
2022/01/09 03:45:00;;;;;;;93.47;41.00;;;;;;;-2.99;75.05;97770.36;2189452;81;21334;-81
2022/01/09 03:48:00;;;;;;;96.13;41.93;;;;;;;-2.90;74.86;97767.36;2189283;81;20944;-82
2022/01/09 03:51:02;;;;;;;110.80;44.93;;;;;;;-2.81;74.76;97762.68;2189238;81;21010;-82
2022/01/09 03:54:03;;;;;;;92.17;41.60;;;;;;;-2.71;74.48;97763.58;2189550;81;21093;-82
2022/01/09 03:57:03;;;;;;;92.23;42.77;;;;;;;-2.70;74.28;97762.77;2189125;81;20964;-82
2022/01/09 04:00:04;;;;;;;98.63;41.67;;;;;;;-2.65;74.27;97766.81;2188942;81;20959;-82
2022/01/09 04:03:04;;;;;;;98.57;43.93;;;;;;;-2.60;74.12;97764.98;2189268;81;20971;-80
2022/01/09 04:06:05;;;;;;;99.13;44.67;;;;;;;-2.53;74.14;97760.14;2189434;81;20956;-79
2022/01/09 04:09:08;;;;;;;102.60;45.13;;;;;;;-2.48;74.01;97751.00;2188994;81;21023;-82
2022/01/09 04:12:14;;;;;;;94.50;41.73;;;;;;;-2.48;73.80;97744.21;2188703;81;20944;-82
2022/01/09 04:15:10;;;;;;;95.60;44.97;;;;;;;-2.45;73.57;97738.36;2188330;81;20979;-82
2022/01/09 04:18:10;;;;;;;92.83;41.43;;;;;;;-2.46;73.46;97735.34;2188638;81;21372;-81
2022/01/09 04:21:11;;;;;;;103.63;46.60;;;;;;;-2.46;73.24;97734.93;2189148;81;21335;-81
2022/01/09 04:24:11;;;;;;;98.67;45.53;;;;;;;-2.46;73.07;97732.78;2189740;81;21391;-83
2022/01/09 04:27:13;;;;;;;111.70;49.10;;;;;;;-2.42;72.94;97729.55;2189278;81;21358;-81
2022/01/09 04:30:14;;;;;;;99.20;45.77;;;;;;;-2.36;72.79;97720.88;2189461;81;20972;-82
2022/01/09 04:33:14;;;;;;;100.40;45.47;;;;;;;-2.32;72.59;97712.53;2189500;81;21292;-82
2022/01/09 04:36:15;;;;;;;105.93;46.43;;;;;;;-2.33;72.60;97708.23;2189353;81;21411;-82
2022/01/09 04:39:15;;;;;;;102.57;47.50;;;;;;;-2.33;72.60;97715.90;2173435;81;21447;-82
2022/01/09 04:42:16;;;;;;;106.40;46.20;;;;;;;-2.32;72.54;97719.80;2172901;81;20984;-82
2022/01/09 04:45:18;;;;;;;107.83;47.07;;;;;;;-2.30;72.21;97719.46;2172679;81;21297;-82
2022/01/09 04:48:18;;;;;;;104.43;45.07;;;;;;;-2.30;72.29;97714.75;2172679;81;20921;-82
2022/01/09 04:51:19;;;;;;;120.90;52.63;;;;;;;-2.30;72.05;97719.87;2172741;81;20956;-82
2022/01/09 04:54:19;;;;;;;106.50;44.70;;;;;;;-2.29;71.98;97708.84;2173069;81;20972;-81
2022/01/09 04:57:20;;;;;;;104.77;45.77;;;;;;;-2.27;71.71;97703.38;2172593;81;21024;-83
2022/01/09 05:00:20;;;;;;;103.40;45.40;;;;;;;-2.26;71.57;97714.08;2172684;81;21470;-82
2022/01/09 05:03:21;;;;;;;110.30;47.53;;;;;;;-2.26;71.93;97708.97;2172917;81;21391;-82
2022/01/09 05:06:21;;;;;;;108.13;45.93;;;;;;;-2.24;71.57;97708.63;2172886;81;21364;-82
2022/01/09 05:09:22;;;;;;;106.37;47.33;;;;;;;-2.21;71.58;97705.33;2172689;81;21068;-83
2022/01/09 05:12:22;;;;;;;101.87;44.23;;;;;;;-2.18;71.16;97708.89;2173151;81;21348;-83
2022/01/09 05:15:24;;;;;;;105.37;44.83;;;;;;;-2.16;71.41;97703.84;2172998;81;20972;-83
2022/01/09 05:18:24;;;;;;;96.50;45.20;;;;;;;-2.10;71.33;97708.81;2173052;81;20960;-84
2022/01/09 05:21:25;;;;;;;93.73;42.43;;;;;;;-2.06;71.29;97707.27;2172544;81;20945;-83
2022/01/09 05:24:25;;;;;;;98.17;42.20;;;;;;;-2.04;71.03;97700.13;2171933;81;20940;-82
2022/01/09 05:27:26;;;;;;;92.27;43.03;;;;;;;-2.01;70.55;97699.38;2172184;81;20968;-82
2022/01/09 05:30:26;;;;;;;96.67;43.03;;;;;;;-2.02;70.68;97693.39;2172158;81;20976;-82
2022/01/09 05:33:27;;;;;;;95.50;44.37;;;;;;;-2.04;70.62;97693.73;2172784;81;21004;-81
2022/01/09 05:36:27;;;;;;;94.30;42.57;;;;;;;-2.06;70.44;97694.08;2172807;81;21011;-83
2022/01/09 05:39:28;;;;;;;90.57;41.03;;;;;;;-2.04;70.54;97701.41;2172547;81;21023;-82
2022/01/09 05:42:28;;;;;;;96.30;43.37;;;;;;;-2.01;70.57;97710.48;2172914;81;20952;-82
2022/01/09 05:45:29;;;;;;;83.87;39.87;;;;;;;-2.02;70.16;97706.18;2172794;81;21000;-81
2022/01/09 05:48:29;;;;;;;86.73;38.73;;;;;;;-2.03;70.27;97704.44;2172910;81;21080;-83
2022/01/09 05:51:30;;;;;;;99.00;42.23;;;;;;;-2.04;70.22;97709.48;2172267;81;20945;-81
2022/01/09 05:54:30;;;;;;;93.20;41.03;;;;;;;-2.04;70.28;97720.98;2172574;81;20992;-82
2022/01/09 05:57:31;;;;;;;82.17;36.57;;;;;;;-2.02;70.17;97719.38;2172959;81;20992;-79
2022/01/09 06:00:31;;;;;;;82.53;39.03;;;;;;;-2.03;69.96;97722.73;2172926;81;20980;-85
2022/01/09 06:03:32;;;;;;;73.37;34.30;;;;;;;-2.07;69.98;97717.90;2173274;81;20940;-84
2022/01/09 06:06:32;;;;;;;91.20;39.83;;;;;;;-2.08;69.71;97723.82;2173233;81;20984;-85
2022/01/09 06:09:33;;;;;;;82.77;38.50;;;;;;;-2.10;69.88;97725.44;2172691;81;21035;-84
2022/01/09 06:12:33;;;;;;;91.07;42.63;;;;;;;-2.11;69.92;97727.52;2172742;81;21358;-82
2022/01/09 06:15:34;;;;;;;81.57;37.13;;;;;;;-2.12;69.89;97721.94;2172328;81;20999;-84
2022/01/09 06:18:34;;;;;;;84.50;39.07;;;;;;;-2.15;69.74;97723.09;2173376;81;20941;-82
2022/01/09 06:21:35;;;;;;;87.73;38.37;;;;;;;-2.22;69.81;97730.42;2172961;81;20937;-83
2022/01/09 06:24:35;;;;;;;89.03;41.23;;;;;;;-2.29;69.82;97726.73;2172927;81;20972;-83
2022/01/09 06:27:36;;;;;;;82.40;38.63;;;;;;;-2.36;70.10;97726.86;2173209;81;20988;-83
2022/01/09 06:30:36;;;;;;;92.47;39.80;;;;;;;-2.41;70.21;97725.79;2173519;81;20972;-85
2022/01/09 06:33:37;;;;;;;73.57;35.57;;;;;;;-2.45;70.44;97733.25;2172705;81;20945;-84
2022/01/09 06:36:37;;;;;;;89.60;40.03;;;;;;;-2.48;70.63;97749.72;2173471;81;21016;-83
2022/01/09 06:39:38;;;;;;;88.93;40.13;;;;;;;-2.55;70.71;97769.42;2187604;81;21482;-84
2022/01/09 06:42:41;;;;;;;98.30;43.50;;;;;;;-2.60;70.87;97762.42;2189832;81;20984;-83
2022/01/09 06:45:41;;;;;;;99.43;43.70;;;;;;;-2.54;71.01;97769.48;2189868;81;20992;-84
2022/01/09 06:48:42;;;;;;;90.40;41.07;;;;;;;-2.48;71.15;97772.31;2190040;81;21394;-83
2022/01/09 06:51:45;;;;;;;90.43;41.80;;;;;;;-2.50;71.05;97778.17;2190131;81;21306;-83
2022/01/09 06:54:45;;;;;;;98.07;44.37;;;;;;;-2.57;71.24;97779.17;2189938;81;21059;-83
2022/01/09 06:57:46;;;;;;;102.03;45.83;;;;;;;-2.52;71.49;97769.55;2190314;81;20967;-84
2022/01/09 07:00:47;;;;;;;105.73;45.70;;;;;;;-2.48;71.32;97765.05;2190486;81;20920;-85
2022/01/09 07:03:47;;;;;;;92.70;43.30;;;;;;;-2.42;71.27;97761.09;2190696;81;20984;-84
2022/01/09 07:06:48;;;;;;;95.40;44.17;;;;;;;-2.39;71.28;97763.78;2190646;81;21010;-85
2022/01/09 07:09:48;;;;;;;103.47;48.37;;;;;;;-2.37;71.29;97760.02;2190333;81;21003;-84
2022/01/09 07:12:49;;;;;;;95.63;44.33;;;;;;;-2.36;71.18;97756.25;2190443;81;20968;-83
2022/01/09 07:15:49;;;;;;;88.27;42.50;;;;;;;-2.35;71.15;97752.02;2189670;81;21030;-85
2022/01/09 07:18:53;;;;;;;101.67;46.13;;;;;;;-2.36;71.13;97753.70;2189862;81;21015;-83
2022/01/09 07:21:53;;;;;;;93.37;43.47;;;;;;;-2.36;71.19;97750.27;2189919;81;21326;-83
2022/01/09 07:24:54;;;;;;;99.20;45.37;;;;;;;-2.33;71.28;97753.84;2189589;81;20991;-83
2022/01/09 07:27:54;;;;;;;98.57;44.33;;;;;;;-2.29;71.23;97753.56;2189610;81;20968;-83
2022/01/09 07:30:55;;;;;;;89.87;42.10;;;;;;;-2.28;71.09;97743.41;2189235;81;20995;-83
2022/01/09 07:33:56;;;;;;;93.80;44.33;;;;;;;-2.29;71.02;97744.63;2189228;81;20947;-83
2022/01/09 07:36:56;;;;;;;97.80;43.50;;;;;;;-2.29;71.09;97744.22;2189150;81;20992;-83
2022/01/09 07:39:56;;;;;;;96.83;43.60;;;;;;;-2.31;71.08;97747.52;2174400;81;21044;-84
2022/01/09 07:42:57;;;;;;;102.73;45.20;;;;;;;-2.32;71.05;97744.48;2173041;81;20979;-83
2022/01/09 07:45:57;;;;;;;98.73;44.93;;;;;;;-2.33;71.12;97744.02;2172952;81;21420;-84
2022/01/09 07:48:58;;;;;;;93.27;43.43;;;;;;;-2.30;71.19;97749.27;2173108;81;20996;-84
2022/01/09 07:51:58;;;;;;;97.23;44.33;;;;;;;-2.26;71.26;97744.75;2172755;81;21016;-82
2022/01/09 07:54:59;;;;;;;94.73;43.17;;;;;;;-2.21;71.26;97744.55;2172943;82;20984;-84
2022/01/09 07:57:59;;;;;;;92.90;44.73;;;;;;;-2.16;71.22;97747.31;2173568;81;21353;-84
2022/01/09 08:01:00;;;;;;;87.53;42.83;;;;;;;-2.15;70.92;97734.59;2173808;81;20925;-83
2022/01/09 08:04:00;;;;;;;95.90;43.27;;;;;;;-2.14;70.81;97740.58;2173568;82;20989;-83
2022/01/09 08:07:01;;;;;;;93.87;42.40;;;;;;;-2.14;70.94;97743.14;2173187;81;20993;-83
2022/01/09 08:10:01;;;;;;;98.03;43.33;;;;;;;-2.10;71.00;97738.63;2172724;81;20984;-83
2022/01/09 08:13:04;;;;;;;85.87;40.87;;;;;;;-2.05;71.02;97743.53;2162318;82;20996;-83
2022/01/09 08:16:04;;;;;;;89.50;42.67;;;;;;;-2.01;70.77;97743.73;2172701;81;21383;-83
2022/01/09 08:19:05;;;;;;;91.10;43.40;;;;;;;-1.99;70.62;97742.11;2172210;81;21399;-83
2022/01/09 08:22:05;;;;;;;92.03;44.27;;;;;;;-1.95;70.70;97738.88;2171835;81;21356;-84
2022/01/09 08:25:06;;;;;;;85.37;41.83;;;;;;;-1.87;70.68;97732.81;2172749;81;20996;-83
2022/01/09 08:28:06;;;;;;;82.23;39.47;;;;;;;-1.76;70.74;97736.69;2172593;81;20949;-83
2022/01/09 08:31:07;;;;;;;94.20;43.63;;;;;;;-1.62;70.72;97729.21;2173522;81;21001;-83
2022/01/09 08:34:07;;;;;;;89.37;42.50;;;;;;;-1.45;70.51;97729.90;2173309;81;21023;-83
2022/01/09 08:37:11;;;;;;;91.60;43.40;;;;;;;-1.29;70.36;97738.66;2173350;81;20988;-84
2022/01/09 08:40:10;;;;;;;86.07;40.83;;;;;;;-1.11;70.23;97728.68;2187332;81;21015;-83
2022/01/09 08:43:10;;;;;;;87.63;42.13;;;;;;;-0.97;69.93;97719.84;2189309;81;21343;-84
2022/01/09 08:46:11;;;;;;;89.70;40.90;;;;;;;-0.83;69.81;97722.56;2189552;81;20976;-84
2022/01/09 08:49:11;;;;;;;85.67;41.67;;;;;;;-0.70;69.33;97718.36;2189730;81;21331;-84
2022/01/09 08:52:12;;;;;;;80.40;40.23;;;;;;;-0.55;69.36;97724.88;2190267;81;21335;-83
2022/01/09 08:55:13;;;;;;;81.37;40.80;;;;;;;-0.39;68.97;97724.21;2190241;81;20992;-84
2022/01/09 08:58:14;;;;;;;79.10;42.17;;;;;;;-0.28;68.86;97715.63;2190228;81;21017;-83
2022/01/09 09:01:14;;;;;;;89.03;44.53;;;;;;;-0.15;68.67;97714.37;2190140;81;21344;-84
2022/01/09 09:04:15;;;;;;;80.50;42.27;;;;;;;-0.02;68.40;97711.41;2190474;81;21007;-83
2022/01/09 09:07:18;;;;;;;82.10;41.63;;;;;;;0.08;68.13;97713.51;2189997;81;20967;-84
2022/01/09 09:10:17;;;;;;;102.63;43.43;;;;;;;0.18;68.12;97708.28;2189497;81;21078;-83
2022/01/09 09:13:18;;;;;;;81.03;40.47;;;;;;;0.25;67.84;97709.83;2189532;81;20920;-83
2022/01/09 09:16:18;;;;;;;81.13;41.13;;;;;;;0.41;67.69;97707.36;2188702;81;21012;-82
2022/01/09 09:25:44;;;;;;;78.83;40.00;;;;;;;0.77;66.90;97696.11;2309094;77;21067;-81
2022/01/09 09:28:44;;;;;;;80.77;39.10;;;;;;;0.72;66.57;97692.94;2270183;78;20994;-83
2022/01/09 09:31:45;;;;;;;80.07;39.73;;;;;;;0.77;66.14;97692.67;2270358;78;20955;-81
2022/01/09 09:34:45;;;;;;;78.23;38.63;;;;;;;0.76;66.19;97691.80;2270298;78;20986;-81
2022/01/09 09:37:46;;;;;;;91.70;42.67;;;;;;;0.74;65.52;97689.59;2269841;78;21299;-80
2022/01/09 09:40:46;;;;;;;78.80;37.73;;;;;;;0.79;66.16;97693.18;2269695;78;21394;-81
2022/01/09 09:43:47;;;;;;;72.53;39.00;;;;;;;0.90;65.94;97693.55;2269453;78;21695;-82
2022/01/09 09:46:48;;;;;;;80.07;40.27;;;;;;;0.97;65.48;97695.48;2269519;78;21335;-82
2022/01/09 09:49:49;;;;;;;72.93;39.10;;;;;;;1.00;65.55;97688.28;2269828;78;20971;-81
2022/01/09 09:52:49;;;;;;;74.93;38.17;;;;;;;1.05;64.92;97684.16;2270176;76;20969;-83
2022/01/09 09:55:53;;;;;;;69.67;38.17;;;;;;;1.04;64.95;97681.12;2270021;78;20982;-81
2022/01/09 09:58:52;;;;;;;76.50;38.47;;;;;;;1.14;65.38;97687.00;2269547;78;20987;-81
2022/01/09 10:01:53;;;;;;;77.27;38.80;;;;;;;1.25;64.88;97692.05;2269961;78;20999;-80
2022/01/09 10:04:53;;;;;;;74.93;37.77;;;;;;;1.31;64.44;97689.66;2270122;78;21004;-81
2022/01/09 10:07:54;;;;;;;74.10;38.90;;;;;;;1.36;64.72;97696.22;2269598;78;21426;-83
2022/01/09 10:10:54;;;;;;;76.70;39.03;;;;;;;1.48;64.38;97687.57;2269518;78;21370;-83
2022/01/09 10:13:54;;;;;;;66.40;34.93;;;;;;;1.57;63.89;97681.41;2269959;78;20979;-79
2022/01/09 10:16:55;;;;;;;63.73;34.40;;;;;;;1.60;63.56;97681.48;2270161;78;20971;-82
2022/01/09 10:19:56;;;;;;;67.80;35.50;;;;;;;1.63;63.29;97682.86;2270225;78;20904;-81
2022/01/09 10:22:56;;;;;;;62.67;33.00;;;;;;;1.61;63.04;97674.23;2269918;78;20983;-81
2022/01/09 10:25:57;;;;;;;66.03;33.93;;;;;;;1.67;63.73;97673.11;2273748;78;20995;-82
2022/01/09 10:28:57;;;;;;;58.20;32.43;;;;;;;1.72;63.23;97670.67;2274132;78;20958;-83
2022/01/09 10:31:57;;;;;;;64.20;33.87;;;;;;;1.78;62.87;97666.59;2274073;78;21009;-81
2022/01/09 10:34:58;;;;;;;59.73;32.40;;;;;;;1.86;62.77;97662.53;2273295;78;20935;-81
2022/01/09 10:37:58;;;;;;;63.47;32.03;;;;;;;1.93;62.67;97659.70;2273290;78;20963;-85
2022/01/09 10:40:59;;;;;;;62.03;33.37;;;;;;;1.93;61.32;97658.83;2272673;78;20943;-83
2022/01/09 10:43:59;;;;;;;67.20;32.73;;;;;;;1.90;61.33;97658.34;2273121;78;20963;-81
2022/01/09 10:47:00;;;;;;;61.10;31.57;;;;;;;1.91;62.49;97660.95;2273096;78;21427;-80
2022/01/09 10:50:01;;;;;;;61.47;31.73;;;;;;;2.01;62.43;97654.34;2272827;78;22024;-81
2022/01/09 10:53:01;;;;;;;66.47;33.10;;;;;;;2.06;62.00;97654.05;2273232;78;20991;-81
2022/01/09 10:56:02;;;;;;;58.60;31.00;;;;;;;2.14;62.54;97655.11;2273354;78;20967;-80
2022/01/09 10:59:02;;;;;;;61.10;32.53;;;;;;;2.29;62.35;97657.62;2272753;78;20970;-80
2022/01/09 11:02:03;;;;;;;54.87;30.53;;;;;;;2.30;61.73;97656.38;2272202;78;20992;-81
2022/01/09 11:05:03;;;;;;;55.53;29.50;;;;;;;2.34;61.63;97653.04;2272369;78;20998;-80
2022/01/09 11:08:03;;;;;;;51.97;29.03;;;;;;;2.39;61.91;97647.59;2272563;78;20990;-81
2022/01/09 11:11:10;;;;;;;54.77;30.40;;;;;;;2.48;61.55;97646.52;2272666;78;20935;-80
2022/01/09 11:14:13;;;;;;;56.07;29.17;;;;;;;2.56;61.18;97642.42;2272655;78;20971;-82
2022/01/09 11:17:12;;;;;;;52.97;27.23;;;;;;;2.56;60.43;97635.98;2272358;78;20932;-81
2022/01/09 11:20:12;;;;;;;49.97;26.60;;;;;;;2.58;61.15;97643.75;2272990;78;20967;-80
2022/01/09 11:23:16;;;;;;;46.20;25.43;;;;;;;2.62;60.00;97642.15;2273077;78;20986;-81
2022/01/09 11:26:16;;;;;;;51.43;26.83;;;;;;;2.66;60.74;97642.67;2272929;78;21014;-81
2022/01/09 11:29:16;;;;;;;47.00;26.50;;;;;;;2.70;60.54;97640.63;2272699;78;21334;-81
2022/01/09 11:32:17;;;;;;;43.63;24.83;;;;;;;2.74;60.67;97639.44;2272476;78;21037;-80
2022/01/09 11:35:17;;;;;;;43.20;24.47;;;;;;;2.80;59.92;97637.42;2272383;78;20967;-81
2022/01/09 11:38:18;;;;;;;49.77;27.33;;;;;;;2.78;59.94;97636.52;2272633;78;21058;-81
2022/01/09 11:41:21;;;;;;;46.00;25.13;;;;;;;2.82;60.33;97636.63;2272812;78;20955;-82
2022/01/09 11:44:25;;;;;;;49.53;26.37;;;;;;;2.84;59.92;97634.08;2272100;78;21038;-81
2022/01/09 11:47:24;;;;;;;48.90;26.83;;;;;;;2.79;59.47;97624.09;2271627;78;21035;-83
2022/01/09 11:50:25;;;;;;;51.77;27.73;;;;;;;2.75;59.93;97627.43;2272454;78;20982;-81
2022/01/09 11:53:25;;;;;;;47.37;26.60;;;;;;;2.77;59.36;97624.47;2272689;78;21014;-81
2022/01/09 11:56:25;;;;;;;48.87;26.87;;;;;;;2.65;59.24;97621.61;2273370;78;20951;-82
2022/01/09 11:59:26;;;;;;;46.60;25.90;;;;;;;2.61;59.38;97615.52;2273709;78;20919;-82
2022/01/09 12:02:30;;;;;;;47.73;26.03;;;;;;;2.60;59.39;97619.31;2273035;78;20959;-83
2022/01/09 12:05:31;;;;;;;51.37;26.30;;;;;;;2.62;59.38;97612.52;2273171;78;20978;-84
2022/01/09 12:08:31;;;;;;;48.80;27.20;;;;;;;2.58;58.87;97609.39;2273132;78;20916;-84
2022/01/09 12:11:32;;;;;;;49.23;24.97;;;;;;;2.55;58.97;97611.48;2273119;78;20952;-83
2022/01/09 12:14:32;;;;;;;47.93;24.60;;;;;;;2.53;59.38;97608.86;2273164;78;20951;-81
2022/01/09 12:17:33;;;;;;;50.33;26.30;;;;;;;2.59;59.62;97611.12;2272872;78;21395;-81
2022/01/09 12:20:37;;;;;;;40.37;23.13;;;;;;;2.59;59.46;97613.70;2272626;78;21007;-82
2022/01/09 12:23:35;;;;;;;44.17;24.40;;;;;;;2.63;58.94;97606.12;2271960;78;21035;-82
2022/01/09 12:26:36;;;;;;;48.07;24.70;;;;;;;2.59;59.06;97608.14;2268859;78;21343;-82
2022/01/09 12:29:36;;;;;;;43.73;23.97;;;;;;;2.54;58.95;97611.02;2268981;78;21353;-84
2022/01/09 12:32:37;;;;;;;42.50;23.33;;;;;;;2.46;59.13;97609.55;2268679;78;20935;-84
2022/01/09 12:35:37;;;;;;;46.20;24.97;;;;;;;2.40;59.16;97608.13;2268503;78;20975;-84
2022/01/09 12:38:38;;;;;;;40.67;23.10;;;;;;;2.36;59.31;97620.47;2268661;78;20947;-82
2022/01/09 12:41:42;;;;;;;42.90;24.13;;;;;;;2.35;59.65;97616.16;2268399;78;20971;-80
2022/01/09 12:44:41;;;;;;;44.50;24.07;;;;;;;2.31;59.05;97617.33;2268018;78;21002;-83
2022/01/09 12:47:41;;;;;;;44.37;24.47;;;;;;;2.24;59.38;97619.75;2268490;78;21327;-84
2022/01/09 12:50:42;;;;;;;43.17;23.50;;;;;;;2.23;59.88;97624.87;2268630;78;20983;-85
2022/01/09 12:53:42;;;;;;;48.30;25.23;;;;;;;2.28;60.37;97633.99;2268494;78;20932;-81
2022/01/09 12:56:43;;;;;;;47.20;25.00;;;;;;;2.31;59.93;97635.36;2268859;78;20952;-85
2022/01/09 12:59:43;;;;;;;47.30;25.30;;;;;;;2.28;60.24;97632.29;2268783;78;20939;-84
2022/01/09 13:02:44;;;;;;;46.77;24.87;;;;;;;2.27;60.13;97636.98;2268497;78;20935;-81
2022/01/09 13:05:44;;;;;;;47.83;25.73;;;;;;;2.23;60.48;97638.61;2268177;78;21434;-81
2022/01/09 13:08:45;;;;;;;51.90;26.50;;;;;;;2.22;60.55;97638.57;2268415;78;20971;-83
2022/01/09 13:11:45;;;;;;;44.03;25.90;;;;;;;2.11;60.17;97644.73;2268682;78;20927;-81
2022/01/09 13:14:46;;;;;;;48.43;25.50;;;;;;;2.06;60.83;97650.19;2269246;78;20938;-84
2022/01/09 13:17:47;;;;;;;42.20;23.70;;;;;;;2.35;64.12;97651.34;2268657;78;20971;-85
2022/01/09 13:20:47;;;;;;;45.80;23.93;;;;;;;2.35;60.97;97646.19;2268614;78;20932;-85
2022/01/09 13:23:47;;;;;;;44.20;23.87;;;;;;;2.18;60.93;97650.50;2267956;78;21015;-85
2022/01/09 13:26:48;;;;;;;44.03;23.27;;;;;;;2.05;61.06;97646.28;2271980;78;20975;-84
2022/01/09 13:29:48;;;;;;;37.97;21.67;;;;;;;1.93;61.25;97657.55;2272617;78;21021;-85
2022/01/09 13:32:49;;;;;;;37.97;20.63;;;;;;;1.81;61.44;97653.81;2273011;78;20917;-84
2022/01/09 13:35:49;;;;;;;36.77;21.10;;;;;;;1.66;61.41;97653.78;2273027;78;21322;-84
2022/01/09 13:38:50;;;;;;;38.33;20.50;;;;;;;1.56;61.86;97652.66;2273054;78;21385;-84
2022/01/09 13:41:50;;;;;;;40.30;21.47;;;;;;;1.48;62.04;97656.72;2273200;78;20994;-84
2022/01/09 13:47:54;;;;;;;41.67;21.87;;;;;;;1.32;62.54;97658.39;2245565;78;20979;-84
2022/01/09 13:50:54;;;;;;;42.23;21.50;;;;;;;1.25;62.81;97662.06;2273175;78;21026;-84
2022/01/09 13:53:55;;;;;;;46.23;23.47;;;;;;;1.18;62.82;97667.86;2273228;78;20983;-83
2022/01/09 13:56:55;;;;;;;44.30;22.97;;;;;;;1.07;62.99;97667.95;2273315;78;21402;-83
2022/01/09 13:59:56;;;;;;;38.73;21.57;;;;;;;0.97;63.35;97673.64;2274189;78;20932;-84
2022/01/09 14:02:57;;;;;;;43.70;22.77;;;;;;;0.88;63.52;97677.22;2274428;78;21014;-82